createdAt,value
2019-01-30T00:01:50.246Z,939.46
2019-01-30T00:04:16.556Z,939.46
2019-01-30T00:06:42.866Z,939.45
2019-01-30T00:09:09.178Z,939.40
2019-01-30T00:11:35.489Z,939.38
2019-01-30T00:14:01.794Z,939.32
2019-01-30T00:16:28.120Z,939.25
2019-01-30T00:18:54.430Z,939.20
2019-01-30T00:21:20.744Z,939.23
2019-01-30T00:23:47.050Z,939.27
2019-01-30T00:26:13.381Z,939.24
2019-01-30T00:28:39.696Z,939.18
2019-01-30T00:31:06.015Z,939.25
2019-01-30T00:33:32.328Z,939.21
2019-01-30T00:35:58.638Z,939.23
2019-01-30T00:38:24.952Z,939.24
2019-01-30T00:40:51.269Z,939.22
2019-01-30T00:43:17.589Z,939.15
2019-01-30T00:45:49.453Z,939.21
2019-01-30T00:48:13.433Z,939.31
2019-01-30T00:50:40.141Z,939.21
2019-01-30T00:53:06.374Z,939.06
2019-01-30T00:55:32.688Z,939.15
2019-01-30T00:58:01.499Z,939.14
2019-01-30T01:00:32.479Z,939.00
2019-01-30T01:02:57.281Z,939.01
2019-01-30T01:05:23.599Z,938.97
2019-01-30T01:07:50.290Z,938.98
2019-01-30T01:10:16.910Z,938.88
2019-01-30T01:12:43.183Z,938.90
2019-01-30T01:15:09.490Z,938.79
2019-01-30T01:17:35.802Z,938.88
2019-01-30T01:20:02.117Z,938.79
2019-01-30T01:22:28.891Z,938.80
2019-01-30T01:24:55.071Z,938.82
2019-01-30T01:27:21.378Z,938.87
2019-01-30T01:29:50.135Z,938.80
2019-01-30T01:32:14.330Z,938.84
2019-01-30T01:34:40.672Z,938.80
2019-01-30T01:37:07.428Z,938.76
2019-01-30T01:39:33.743Z,938.72
2019-01-30T01:42:00.055Z,938.70
2019-01-30T01:44:26.366Z,938.64
2019-01-30T01:46:55.787Z,938.57
2019-01-30T01:49:22.248Z,938.51
2019-01-30T01:51:48.477Z,938.49
2019-01-30T01:54:14.793Z,938.44
2019-01-30T01:56:41.297Z,938.48
2019-01-30T01:59:07.410Z,938.47
2019-01-30T02:01:33.720Z,938.50
2019-01-30T02:04:00.030Z,938.47
2019-01-30T02:06:26.336Z,938.42
2019-01-30T02:08:52.656Z,938.37
2019-01-30T02:11:18.969Z,938.25
2019-01-30T02:13:45.487Z,938.27
2019-01-30T02:16:11.821Z,938.26
2019-01-30T02:18:38.134Z,938.18
2019-01-30T02:21:04.460Z,938.20
2019-01-30T02:23:30.819Z,938.16
2019-01-30T02:25:57.135Z,938.18
2019-01-30T02:28:23.442Z,938.19
2019-01-30T02:30:49.754Z,938.14
2019-01-30T02:33:16.065Z,938.12
2019-01-30T02:35:42.385Z,938.13
2019-01-30T02:38:08.680Z,938.04
2019-01-30T02:40:34.990Z,938.11
2019-01-30T02:43:01.291Z,938.05
2019-01-30T02:45:27.633Z,938.13
2019-01-30T02:47:53.953Z,938.08
2019-01-30T02:50:20.270Z,937.97
2019-01-30T02:52:46.599Z,937.98
2019-01-30T02:55:12.904Z,937.96
2019-01-30T02:57:39.213Z,937.95
2019-01-30T03:00:05.575Z,937.92
2019-01-30T03:02:31.879Z,937.84
2019-01-30T03:04:58.190Z,937.80
2019-01-30T03:07:24.491Z,937.83
2019-01-30T03:09:50.797Z,937.74
2019-01-30T03:12:17.104Z,937.90
2019-01-30T03:14:43.414Z,937.94
2019-01-30T03:17:09.733Z,938.04
2019-01-30T03:19:36.042Z,938.08
2019-01-30T03:22:02.465Z,938.09
2019-01-30T03:24:28.854Z,938.14
2019-01-30T03:26:55.257Z,938.24
2019-01-30T03:29:21.620Z,938.28
2019-01-30T03:31:47.949Z,938.23
2019-01-30T03:34:14.316Z,938.15
2019-01-30T03:36:40.658Z,938.26
2019-01-30T03:39:06.953Z,938.30
2019-01-30T03:41:33.268Z,938.36
2019-01-30T03:43:59.582Z,938.31
2019-01-30T03:46:25.915Z,938.41
2019-01-30T03:48:52.229Z,938.39
2019-01-30T03:51:18.536Z,938.34
2019-01-30T03:53:44.911Z,938.34
2019-01-30T03:56:11.148Z,938.15
2019-01-30T03:58:37.456Z,938.14
2019-01-30T04:01:03.767Z,938.16
2019-01-30T04:03:30.089Z,938.13
2019-01-30T04:05:56.389Z,938.13
2019-01-30T04:08:22.699Z,938.07
2019-01-30T04:10:49.012Z,938.05
2019-01-30T04:13:15.317Z,938.01
2019-01-30T04:15:41.628Z,938.14
2019-01-30T04:18:07.934Z,938.08
2019-01-30T04:20:34.246Z,938.00
2019-01-30T04:23:00.562Z,937.99
2019-01-30T04:25:26.866Z,938.00
2019-01-30T04:27:53.269Z,937.92
2019-01-30T04:30:19.495Z,937.92
2019-01-30T04:32:45.803Z,937.99
2019-01-30T04:35:12.116Z,938.06
2019-01-30T04:37:38.427Z,938.08
2019-01-30T04:40:04.736Z,938.08
2019-01-30T04:42:31.044Z,938.03
2019-01-30T04:44:57.361Z,938.10
2019-01-30T04:47:23.674Z,938.19
2019-01-30T04:49:49.976Z,938.11
2019-01-30T04:52:16.288Z,938.22
2019-01-30T04:54:42.592Z,938.26
2019-01-30T04:57:08.911Z,938.14
2019-01-30T04:59:35.210Z,938.26
2019-01-30T05:02:01.520Z,938.22
2019-01-30T05:04:27.829Z,938.23
2019-01-30T05:06:54.142Z,938.18
2019-01-30T05:09:20.449Z,938.16
2019-01-30T05:11:46.766Z,938.16
2019-01-30T05:14:13.067Z,938.11
2019-01-30T05:16:39.377Z,938.11
2019-01-30T05:19:05.685Z,938.11
2019-01-30T05:21:31.998Z,938.19
2019-01-30T05:23:58.311Z,938.26
2019-01-30T05:26:24.632Z,938.20
2019-01-30T05:28:50.922Z,938.27
2019-01-30T05:31:17.230Z,938.29
2019-01-30T05:33:43.533Z,938.33
2019-01-30T05:36:09.844Z,938.34
2019-01-30T05:38:36.143Z,938.36
2019-01-30T05:41:02.447Z,938.34
2019-01-30T05:43:28.753Z,938.24
2019-01-30T05:45:55.056Z,938.22
2019-01-30T05:48:21.369Z,938.04
2019-01-30T05:50:47.683Z,938.11
2019-01-30T05:53:13.991Z,938.02
2019-01-30T05:55:40.296Z,938.10
2019-01-30T05:58:06.604Z,938.10
2019-01-30T06:00:32.910Z,937.94
2019-01-30T06:02:59.217Z,938.09
2019-01-30T06:05:25.520Z,938.08
2019-01-30T06:07:51.827Z,938.10
2019-01-30T06:10:18.153Z,938.12
2019-01-30T06:12:44.496Z,938.13
2019-01-30T06:15:10.809Z,938.14
2019-01-30T06:17:37.119Z,938.12
2019-01-30T06:20:03.428Z,938.08
2019-01-30T06:22:29.736Z,938.06
2019-01-30T06:24:56.053Z,938.13
2019-01-30T06:27:22.370Z,938.19
2019-01-30T06:29:48.676Z,938.20
2019-01-30T06:32:21.655Z,938.20
2019-01-30T06:34:41.322Z,938.21
2019-01-30T06:37:07.639Z,938.23
2019-01-30T06:39:33.948Z,938.21
2019-01-30T06:42:00.262Z,938.22
2019-01-30T06:44:26.572Z,938.25
2019-01-30T06:46:52.895Z,938.19
2019-01-30T06:49:19.201Z,938.19
2019-01-30T06:51:45.508Z,938.07
2019-01-30T06:54:11.811Z,938.15
2019-01-30T06:56:38.120Z,938.17
2019-01-30T06:59:04.428Z,938.12
2019-01-30T07:01:30.751Z,938.12
2019-01-30T07:03:57.067Z,938.12
2019-01-30T07:06:23.378Z,938.16
2019-01-30T07:08:49.692Z,938.23
2019-01-30T07:11:15.997Z,938.16
2019-01-30T07:13:42.307Z,938.21
2019-01-30T07:16:08.612Z,938.20
2019-01-30T07:18:34.927Z,938.20
2019-01-30T07:21:01.254Z,938.23
2019-01-30T07:23:27.761Z,938.21
2019-01-30T07:25:54.068Z,938.16
2019-01-30T07:28:20.375Z,938.12
2019-01-30T07:30:46.694Z,938.12
2019-01-30T07:33:13.018Z,938.15
2019-01-30T07:35:39.329Z,938.16
2019-01-30T07:38:05.639Z,938.18
2019-01-30T07:40:31.950Z,938.20
2019-01-30T07:42:58.280Z,938.10
2019-01-30T07:45:24.593Z,938.14
2019-01-30T07:47:50.904Z,938.14
2019-01-30T07:50:17.213Z,938.12
2019-01-30T07:52:43.526Z,938.20
2019-01-30T07:55:09.852Z,938.18
2019-01-30T07:57:36.165Z,938.18
2019-01-30T08:00:02.520Z,938.12
2019-01-30T08:02:28.783Z,938.21
2019-01-30T08:04:55.107Z,938.20
2019-01-30T08:07:21.453Z,938.20
2019-01-30T08:09:47.760Z,938.25
2019-01-30T08:12:14.065Z,938.30
2019-01-30T08:14:40.375Z,938.34
2019-01-30T08:17:06.681Z,938.24
2019-01-30T08:19:33.009Z,938.21
2019-01-30T08:21:59.316Z,938.26
2019-01-30T08:24:25.774Z,938.31
2019-01-30T08:26:51.994Z,938.39
2019-01-30T08:29:18.590Z,938.37
2019-01-30T08:31:44.723Z,938.30
2019-01-30T08:34:10.936Z,938.35
2019-01-30T08:36:37.290Z,938.42
2019-01-30T08:39:03.605Z,938.51
2019-01-30T08:41:29.912Z,938.44
2019-01-30T08:43:57.982Z,938.45
2019-01-30T08:46:22.549Z,938.53
2019-01-30T08:48:48.883Z,938.50
2019-01-30T08:51:15.188Z,938.50
2019-01-30T08:53:41.516Z,938.48
2019-01-30T08:56:07.821Z,938.54
2019-01-30T08:58:34.154Z,938.55
2019-01-30T09:01:00.434Z,938.62
2019-01-30T09:03:26.761Z,938.60
2019-01-30T09:05:53.073Z,938.62
2019-01-30T09:08:19.390Z,938.61
2019-01-30T09:10:45.696Z,938.64
2019-01-30T09:13:12.006Z,938.52
2019-01-30T09:15:38.313Z,938.57
2019-01-30T09:18:04.620Z,938.52
2019-01-30T09:20:30.947Z,938.50
2019-01-30T09:22:57.267Z,938.45
2019-01-30T09:25:23.569Z,938.47
2019-01-30T09:27:49.886Z,938.49
2019-01-30T09:30:16.197Z,938.50
2019-01-30T09:32:42.535Z,938.33
2019-01-30T09:35:08.861Z,938.32
2019-01-30T09:37:35.174Z,938.27
2019-01-30T09:40:01.449Z,938.33
2019-01-30T09:42:27.749Z,938.25
2019-01-30T09:44:54.197Z,938.28
2019-01-30T09:47:20.371Z,938.30
2019-01-30T09:49:46.685Z,938.30
2019-01-30T09:52:12.997Z,938.25
2019-01-30T09:54:39.306Z,938.24
2019-01-30T09:57:05.616Z,938.26
2019-01-30T09:59:31.940Z,938.19
2019-01-30T10:01:58.245Z,938.10
2019-01-30T10:04:24.555Z,938.06
2019-01-30T10:06:50.905Z,937.97
2019-01-30T10:09:17.176Z,938.02
2019-01-30T10:11:43.486Z,937.91
2019-01-30T10:14:09.789Z,937.93
2019-01-30T10:16:36.102Z,937.93
2019-01-30T10:19:02.461Z,937.86
2019-01-30T10:21:28.773Z,937.83
2019-01-30T10:23:55.080Z,937.82
2019-01-30T10:26:21.395Z,937.90
2019-01-30T10:28:47.772Z,937.81
2019-01-30T10:31:14.089Z,937.80
2019-01-30T10:33:46.338Z,937.73
2019-01-30T10:36:06.710Z,937.79
2019-01-30T10:38:33.019Z,937.70
2019-01-30T10:40:59.333Z,937.74
2019-01-30T10:43:25.654Z,937.76
2019-01-30T10:45:51.974Z,937.72
2019-01-30T10:48:18.307Z,937.69
2019-01-30T10:50:44.625Z,937.68
2019-01-30T10:53:10.931Z,937.77
2019-01-30T10:55:37.298Z,937.75
2019-01-30T10:58:03.614Z,937.84
2019-01-30T11:00:29.970Z,937.75
2019-01-30T11:02:56.361Z,937.66
2019-01-30T11:05:22.676Z,937.65
2019-01-30T11:07:48.983Z,937.63
2019-01-30T11:10:15.296Z,937.67
2019-01-30T11:12:41.604Z,937.63
2019-01-30T11:15:07.913Z,937.68
2019-01-30T11:17:34.226Z,937.70
2019-01-30T11:20:00.542Z,937.68
2019-01-30T11:22:26.854Z,937.66
2019-01-30T11:24:55.669Z,937.72
2019-01-30T11:27:19.467Z,937.70
2019-01-30T11:29:45.773Z,937.68
2019-01-30T11:32:12.083Z,937.63
2019-01-30T11:34:38.387Z,937.57
2019-01-30T11:37:04.696Z,937.58
2019-01-30T11:39:31.030Z,937.52
2019-01-30T11:41:57.399Z,937.54
2019-01-30T11:44:24.988Z,937.50
2019-01-30T11:46:52.030Z,937.57
2019-01-30T11:49:18.337Z,937.52
2019-01-30T11:51:44.653Z,937.49
2019-01-30T11:54:11.100Z,937.47
2019-01-30T11:56:37.682Z,937.42
2019-01-30T11:59:03.983Z,937.40
2019-01-30T12:01:30.320Z,937.36
2019-01-30T12:03:56.638Z,937.35
2019-01-30T12:06:22.940Z,937.34
2019-01-30T12:08:49.240Z,937.26
2019-01-30T12:11:15.562Z,937.25
2019-01-30T12:13:41.874Z,937.17
2019-01-30T12:16:08.273Z,937.23
2019-01-30T12:18:34.590Z,937.19
2019-01-30T12:21:00.921Z,937.13
2019-01-30T12:23:27.232Z,937.15
2019-01-30T12:25:53.541Z,937.16
2019-01-30T12:28:19.937Z,937.20
2019-01-30T12:30:46.224Z,937.17
2019-01-30T12:33:12.546Z,937.22
2019-01-30T12:35:38.860Z,937.22
2019-01-30T12:38:05.172Z,937.25
2019-01-30T12:40:31.493Z,937.38
2019-01-30T12:42:57.797Z,937.26
2019-01-30T12:45:25.090Z,937.24
2019-01-30T12:47:50.448Z,937.20
2019-01-30T12:50:16.768Z,937.21
2019-01-30T12:52:43.089Z,937.19
2019-01-30T12:55:09.391Z,937.23
2019-01-30T12:57:35.711Z,937.23
2019-01-30T13:00:02.023Z,937.21
2019-01-30T13:02:29.122Z,937.21
2019-01-30T13:04:55.428Z,937.25
2019-01-30T13:07:21.745Z,937.23
2019-01-30T13:09:48.109Z,937.30
2019-01-30T13:12:14.423Z,937.20
2019-01-30T13:14:40.727Z,937.26
2019-01-30T13:17:07.144Z,937.20
2019-01-30T13:19:34.213Z,937.24
2019-01-30T13:22:00.871Z,937.28
2019-01-30T13:24:27.431Z,937.24
2019-01-30T13:26:53.740Z,937.21
2019-01-30T13:29:20.047Z,937.23
2019-01-30T13:31:46.501Z,937.24
2019-01-30T13:34:12.809Z,937.25
2019-01-30T13:36:40.200Z,937.25
2019-01-30T13:39:05.486Z,937.21
2019-01-30T13:41:31.794Z,937.16
2019-01-30T13:43:58.112Z,937.17
2019-01-30T13:46:24.427Z,937.15
2019-01-30T13:48:50.757Z,937.12
2019-01-30T13:51:17.061Z,937.16
2019-01-30T13:53:43.373Z,937.09
2019-01-30T13:56:09.696Z,937.13
2019-01-30T13:58:36.007Z,937.11
2019-01-30T14:01:02.338Z,937.10
2019-01-30T14:03:28.611Z,937.17
2019-01-30T14:05:54.942Z,937.13
2019-01-30T14:08:21.276Z,937.14
2019-01-30T14:10:47.557Z,937.09
2019-01-30T14:13:13.868Z,937.12
2019-01-30T14:15:40.205Z,937.12
2019-01-30T14:18:06.554Z,937.06
2019-01-30T14:20:32.853Z,937.10
2019-01-30T14:22:59.172Z,937.15
2019-01-30T14:25:25.521Z,937.14
2019-01-30T14:27:51.795Z,937.09
2019-01-30T14:30:18.121Z,937.09
2019-01-30T14:32:44.433Z,937.15
2019-01-30T14:35:11.145Z,937.15
2019-01-30T14:37:37.048Z,937.11
2019-01-30T14:40:03.529Z,937.10
2019-01-30T14:42:29.692Z,937.11
2019-01-30T14:44:56.077Z,937.15
2019-01-30T14:47:22.357Z,937.12
2019-01-30T14:49:48.679Z,937.16
2019-01-30T14:52:15.001Z,937.15
2019-01-30T14:54:41.358Z,937.13
2019-01-30T14:57:07.678Z,937.16
2019-01-30T14:59:33.944Z,937.22
2019-01-30T15:02:00.253Z,937.21
2019-01-30T15:04:26.615Z,937.25
2019-01-30T15:06:52.896Z,937.20
2019-01-30T15:09:19.237Z,937.22
2019-01-30T15:11:45.527Z,937.28
2019-01-30T15:14:11.852Z,937.27
2019-01-30T15:16:38.158Z,937.31
2019-01-30T15:19:04.526Z,937.26
2019-01-30T15:21:30.788Z,937.34
2019-01-30T15:23:57.083Z,937.27
2019-01-30T15:26:24.337Z,937.40
2019-01-30T15:28:50.645Z,937.36
2019-01-30T15:31:16.957Z,937.36
2019-01-30T15:33:43.272Z,937.41
2019-01-30T15:36:09.778Z,937.34
2019-01-30T15:38:36.083Z,937.38
2019-01-30T15:41:02.393Z,937.38
2019-01-30T15:43:28.745Z,937.45
2019-01-30T15:45:55.044Z,937.42
2019-01-30T15:48:21.367Z,937.43
2019-01-30T15:50:47.672Z,937.42
2019-01-30T15:53:13.977Z,937.41
2019-01-30T15:55:40.288Z,937.42
2019-01-30T15:58:06.604Z,937.46
2019-01-30T16:00:32.989Z,937.43
2019-01-30T16:02:59.255Z,937.55
2019-01-30T16:05:25.566Z,937.52
2019-01-30T16:07:51.950Z,937.49
2019-01-30T16:10:18.227Z,937.56
2019-01-30T16:12:44.496Z,937.55
2019-01-30T16:15:10.809Z,937.54
2019-01-30T16:17:37.127Z,937.60
2019-01-30T16:20:03.436Z,937.58
2019-01-30T16:22:29.744Z,937.55
2019-01-30T16:24:56.073Z,937.62
2019-01-30T16:27:22.384Z,937.69
2019-01-30T16:29:48.694Z,937.63
2019-01-30T16:32:15.001Z,937.72
2019-01-30T16:34:41.632Z,937.72
2019-01-30T16:37:07.941Z,937.66
2019-01-30T16:39:34.249Z,937.72
2019-01-30T16:42:00.562Z,937.73
2019-01-30T16:44:26.884Z,937.75
2019-01-30T16:46:53.184Z,937.80
2019-01-30T16:49:19.499Z,937.78
2019-01-30T16:51:45.822Z,937.83
2019-01-30T16:54:12.124Z,937.89
2019-01-30T16:56:38.482Z,937.90
2019-01-30T16:59:04.789Z,937.87
2019-01-30T17:01:31.097Z,937.87
2019-01-30T17:03:57.413Z,937.92
2019-01-30T17:06:23.717Z,937.94
2019-01-30T17:08:50.049Z,937.95
2019-01-30T17:11:16.356Z,938.07
2019-01-30T17:13:42.692Z,938.02
2019-01-30T17:16:09.004Z,938.01
2019-01-30T17:18:35.315Z,938.00
2019-01-30T17:21:01.629Z,938.00
2019-01-30T17:23:27.939Z,938.04
2019-01-30T17:25:54.254Z,938.08
2019-01-30T17:28:20.566Z,938.12
2019-01-30T17:30:46.900Z,938.12
2019-01-30T17:33:13.213Z,938.18
2019-01-30T17:35:39.521Z,938.17
2019-01-30T17:38:05.841Z,938.24
2019-01-30T17:40:32.150Z,938.21
2019-01-30T17:42:58.516Z,938.25
2019-01-30T17:45:24.835Z,938.21
2019-01-30T17:47:51.150Z,938.24
2019-01-30T17:50:17.460Z,938.24
2019-01-30T17:52:43.765Z,938.29
2019-01-30T17:55:10.075Z,938.28
2019-01-30T17:57:36.389Z,938.38
2019-01-30T18:00:02.804Z,938.39
2019-01-30T18:02:29.131Z,938.34
2019-01-30T18:04:55.445Z,938.33
2019-01-30T18:07:21.770Z,938.32
2019-01-30T18:09:48.079Z,938.37
2019-01-30T18:12:14.411Z,938.37
2019-01-30T18:14:40.713Z,938.36
2019-01-30T18:17:07.022Z,938.40
2019-01-30T18:19:33.358Z,938.40
2019-01-30T18:21:59.667Z,938.38
2019-01-30T18:24:26.006Z,938.45
2019-01-30T18:26:52.317Z,938.43
2019-01-30T18:29:18.630Z,938.48
2019-01-30T18:31:44.951Z,938.49
2019-01-30T18:34:11.300Z,938.51
2019-01-30T18:36:41.112Z,938.59
2019-01-30T18:39:03.935Z,938.56
2019-01-30T18:41:30.246Z,938.63
2019-01-30T18:43:58.782Z,938.60
2019-01-30T18:46:25.199Z,938.65
2019-01-30T18:48:51.856Z,938.61
2019-01-30T18:51:18.622Z,938.63
2019-01-30T18:53:44.892Z,938.59
2019-01-30T18:56:11.230Z,938.65
2019-01-30T18:58:37.536Z,938.70
2019-01-30T19:01:06.920Z,938.73
2019-01-30T19:03:35.518Z,938.78
2019-01-30T19:06:01.832Z,938.72
2019-01-30T19:08:31.005Z,938.82
2019-01-30T19:10:54.454Z,938.73
2019-01-30T19:13:20.772Z,938.74
2019-01-30T19:15:47.947Z,938.76
2019-01-30T19:18:14.258Z,938.78
2019-01-30T19:20:40.571Z,938.82
2019-01-30T19:23:07.233Z,938.86
2019-01-30T19:25:33.203Z,938.87
2019-01-30T19:28:00.697Z,938.95
2019-01-30T19:30:25.838Z,938.94
2019-01-30T19:32:52.165Z,938.93
2019-01-30T19:35:18.577Z,938.96
2019-01-30T19:37:44.892Z,938.91
2019-01-30T19:40:11.198Z,938.91
2019-01-30T19:42:38.500Z,938.92
2019-01-30T19:45:03.865Z,938.94
2019-01-30T19:47:30.483Z,938.93
2019-01-30T19:49:56.788Z,939.01
2019-01-30T19:52:23.103Z,939.07
2019-01-30T19:54:49.408Z,939.07
2019-01-30T19:57:15.716Z,939.10
2019-01-30T19:59:42.031Z,939.13
2019-01-30T20:02:08.390Z,939.15
2019-01-30T20:04:34.712Z,939.21
2019-01-30T20:07:01.023Z,939.22
2019-01-30T20:09:27.332Z,939.22
2019-01-30T20:11:53.647Z,939.24
2019-01-30T20:14:19.995Z,939.22
2019-01-30T20:16:46.317Z,939.23
2019-01-30T20:19:12.627Z,939.27
2019-01-30T20:21:38.942Z,939.28
2019-01-30T20:24:05.253Z,939.24
2019-01-30T20:26:31.564Z,939.18
2019-01-30T20:28:57.874Z,939.19
2019-01-30T20:31:24.179Z,939.25
2019-01-30T20:33:50.491Z,939.28
2019-01-30T20:36:16.809Z,939.29
2019-01-30T20:38:46.032Z,939.25
2019-01-30T20:41:12.220Z,939.25
2019-01-30T20:43:38.549Z,939.16
2019-01-30T20:46:04.891Z,939.17
2019-01-30T20:48:32.235Z,939.16
2019-01-30T20:50:58.544Z,939.22
2019-01-30T20:53:24.858Z,939.25
2019-01-30T20:55:52.842Z,939.25
2019-01-30T20:58:17.511Z,939.31
2019-01-30T21:00:43.846Z,939.31
2019-01-30T21:03:10.157Z,939.42
2019-01-30T21:05:36.465Z,939.40
2019-01-30T21:08:02.780Z,939.46
2019-01-30T21:10:29.086Z,939.41
2019-01-30T21:12:55.401Z,939.47
2019-01-30T21:15:21.739Z,939.40
2019-01-30T21:17:48.059Z,939.39
2019-01-30T21:20:14.417Z,939.41
2019-01-30T21:22:40.688Z,939.41
2019-01-30T21:25:06.996Z,939.46
2019-01-30T21:27:33.323Z,939.41
2019-01-30T21:29:59.634Z,939.38
2019-01-30T21:32:25.954Z,939.40
2019-01-30T21:34:52.259Z,939.37
2019-01-30T21:37:20.512Z,939.42
2019-01-30T21:39:44.880Z,939.40
2019-01-30T21:42:11.236Z,939.43
2019-01-30T21:44:37.555Z,939.44
2019-01-30T21:47:03.889Z,939.42
2019-01-30T21:49:30.209Z,939.45
2019-01-30T21:51:56.526Z,939.43
2019-01-30T21:54:22.832Z,939.37
2019-01-30T21:56:49.185Z,939.43
2019-01-30T21:59:15.471Z,939.47
2019-01-30T22:01:41.777Z,939.39
2019-01-30T22:04:08.083Z,939.42
2019-01-30T22:06:34.394Z,939.40
2019-01-30T22:09:00.704Z,939.40
2019-01-30T22:11:27.011Z,939.38
2019-01-30T22:13:53.327Z,939.37
2019-01-30T22:16:19.619Z,939.31
2019-01-30T22:18:45.934Z,939.28
2019-01-30T22:21:12.236Z,939.34
2019-01-30T22:23:38.545Z,939.36
2019-01-30T22:26:04.865Z,939.28
2019-01-30T22:28:31.175Z,939.30
2019-01-30T22:30:57.486Z,939.26
2019-01-30T22:33:23.797Z,939.23
2019-01-30T22:35:50.101Z,939.16
2019-01-30T22:38:16.413Z,939.15
2019-01-30T22:40:42.721Z,939.14
2019-01-30T22:43:09.039Z,939.14
2019-01-30T22:45:35.344Z,939.16
2019-01-30T22:48:01.667Z,939.15
2019-01-30T22:50:27.985Z,939.14
2019-01-30T22:52:54.291Z,939.12
2019-01-30T22:55:20.660Z,939.08
2019-01-30T22:57:46.924Z,939.08
2019-01-30T23:00:13.234Z,938.98
2019-01-30T23:02:39.545Z,939.07
2019-01-30T23:05:05.852Z,939.16
2019-01-30T23:07:32.176Z,939.21
2019-01-30T23:09:58.489Z,939.19
2019-01-30T23:12:24.797Z,939.14
2019-01-30T23:14:51.113Z,939.15
2019-01-30T23:17:17.439Z,939.09
2019-01-30T23:19:43.746Z,939.10
2019-01-30T23:22:10.058Z,939.17
2019-01-30T23:24:36.362Z,939.06
2019-01-30T23:27:02.672Z,939.06
2019-01-30T23:29:28.990Z,939.00
2019-01-30T23:31:55.293Z,939.05
2019-01-30T23:34:21.625Z,939.07
2019-01-30T23:36:47.969Z,939.13
2019-01-30T23:39:14.288Z,939.08
2019-01-30T23:41:40.592Z,939.08
2019-01-30T23:44:06.906Z,939.03
2019-01-30T23:46:33.209Z,939.04
2019-01-30T23:48:59.516Z,939.01
2019-01-30T23:51:25.828Z,939.01
2019-01-30T23:53:52.137Z,939.04
2019-01-30T23:56:18.439Z,939.00
2019-01-30T23:58:44.745Z,938.97
